createdAt,value
2023-01-02T00:00:57.706Z,10.00
2023-01-02T00:03:24.559Z,10.00
2023-01-02T00:05:51.471Z,9.90
2023-01-02T00:08:18.251Z,9.90
2023-01-02T00:10:45.247Z,9.90
2023-01-02T00:13:12.091Z,9.90
2023-01-02T00:15:38.859Z,9.90
2023-01-02T00:18:05.589Z,9.90
2023-01-02T00:20:33.157Z,9.90
2023-01-02T00:23:00.092Z,9.90
2023-01-02T00:25:26.704Z,9.90
2023-01-02T00:27:54.627Z,9.90
2023-01-02T00:30:21.321Z,9.90
2023-01-02T00:32:48.019Z,9.80
2023-01-02T00:35:14.656Z,9.90
2023-01-02T00:37:41.258Z,9.90
2023-01-02T00:40:13.558Z,9.80
2023-01-02T00:42:41.388Z,9.80
2023-01-02T00:45:09.604Z,9.90
2023-01-02T00:47:36.528Z,9.80
2023-01-02T00:50:03.525Z,9.90
2023-01-02T00:52:30.255Z,9.90
2023-01-02T00:54:56.829Z,9.90
2023-01-02T00:57:23.536Z,9.90
2023-01-02T00:59:50.169Z,9.90
2023-01-02T01:02:16.871Z,9.90
2023-01-02T01:04:43.576Z,9.90
2023-01-02T01:07:10.251Z,9.90
2023-01-02T01:09:36.880Z,9.90
2023-01-02T01:12:05.186Z,9.90
2023-01-02T01:14:32.089Z,10.00
2023-01-02T01:16:59.147Z,10.00
2023-01-02T01:19:29.650Z,10.10
2023-01-02T01:21:56.321Z,10.10
2023-01-02T01:24:23.108Z,10.20
2023-01-02T01:26:49.732Z,10.30
2023-01-02T01:29:16.339Z,10.30
2023-01-02T01:31:42.984Z,10.40
2023-01-02T01:34:12.463Z,10.60
2023-01-02T01:36:39.112Z,10.80
2023-01-02T01:39:05.823Z,10.90
2023-01-02T01:41:32.418Z,11.00
2023-01-02T01:44:01.318Z,11.30
2023-01-02T01:46:40.707Z,11.20
2023-01-02T01:49:11.346Z,11.20
2023-01-02T01:51:41.608Z,11.20
2023-01-02T01:54:11.508Z,11.20
2023-01-02T01:56:44.175Z,11.20
2023-01-02T01:59:11.809Z,11.30
2023-01-02T02:01:41.848Z,11.40
2023-01-02T02:04:11.163Z,11.40
2023-01-02T02:06:38.836Z,11.50
2023-01-02T02:09:29.980Z,11.60
2023-01-02T02:11:56.578Z,11.60
2023-01-02T02:14:23.171Z,11.70
2023-01-02T02:17:13.862Z,11.70
2023-01-02T02:20:06.285Z,11.70
2023-01-02T02:23:09.717Z,11.70
2023-01-02T02:25:39.307Z,11.70
2023-01-02T02:28:51.047Z,11.70
2023-01-02T02:31:34.238Z,12.00
2023-01-02T02:34:18.952Z,12.20
2023-01-02T02:37:01.729Z,12.30
2023-01-02T02:39:47.148Z,12.30
2023-01-02T02:42:29.855Z,12.30
2023-01-02T02:45:06.331Z,12.30
2023-01-02T02:47:42.817Z,12.20
2023-01-02T02:50:14.639Z,12.10
2023-01-02T02:52:57.060Z,12.10
2023-01-02T02:55:29.590Z,12.20
2023-01-02T02:57:57.780Z,12.20
2023-01-02T03:00:24.563Z,12.30
2023-01-02T03:02:51.388Z,12.30
2023-01-02T03:05:37.378Z,12.20
2023-01-02T03:08:21.024Z,12.20
2023-01-02T03:10:59.187Z,12.20
2023-01-02T03:13:53.771Z,12.10
2023-01-02T03:16:23.891Z,12.10
2023-01-02T03:19:02.173Z,12.00
2023-01-02T03:21:52.537Z,12.00
2023-01-02T03:24:21.093Z,11.90
2023-01-02T03:26:51.666Z,11.80
2023-01-02T03:29:31.013Z,11.70
2023-01-02T03:32:00.098Z,11.70
2023-01-02T03:34:31.145Z,11.60
2023-01-02T03:37:09.718Z,11.50
2023-01-02T03:39:42.969Z,11.50
2023-01-02T03:42:16.522Z,11.40
2023-01-02T03:45:07.959Z,11.40
2023-01-02T03:48:15.532Z,11.30
2023-01-02T03:50:51.101Z,11.20
2023-01-02T03:53:17.981Z,11.10
2023-01-02T03:56:07.723Z,11.00
2023-01-02T03:58:46.907Z,11.00
2023-01-02T04:01:42.768Z,11.00
2023-01-02T04:04:09.377Z,11.20
2023-01-02T04:06:40.219Z,11.30
2023-01-02T04:09:20.460Z,11.60
2023-01-02T04:11:53.255Z,11.50
2023-01-02T04:14:34.795Z,11.70
2023-01-02T04:17:03.566Z,11.70
2023-01-02T04:19:38.303Z,11.70
2023-01-02T04:22:10.174Z,11.70
2023-01-02T04:24:42.585Z,11.70
2023-01-02T04:27:34.942Z,11.80
2023-01-02T04:30:02.080Z,12.00
2023-01-02T04:32:40.845Z,12.00
2023-01-02T04:35:10.503Z,12.10
2023-01-02T04:37:42.262Z,12.20
2023-01-02T04:40:19.698Z,12.40
2023-01-02T04:42:46.298Z,12.40
2023-01-02T04:45:13.436Z,12.40
2023-01-02T04:47:40.403Z,12.50
2023-01-02T04:50:08.275Z,12.40
2023-01-02T04:52:37.381Z,12.50
2023-01-02T04:55:05.460Z,12.50
2023-01-02T04:57:32.301Z,12.50
2023-01-02T05:00:00.199Z,12.50
2023-01-02T05:02:27.599Z,12.60
2023-01-02T05:04:54.227Z,12.60
2023-01-02T05:07:21.023Z,12.50
2023-01-02T05:09:47.691Z,12.50
2023-01-02T05:12:14.365Z,12.50
2023-01-02T05:14:40.939Z,12.50
2023-01-02T05:17:07.622Z,12.40
2023-01-02T05:19:34.207Z,12.50
2023-01-02T05:22:21.368Z,12.40
2023-01-02T05:24:47.942Z,12.50
2023-01-02T05:27:14.622Z,12.50
2023-01-02T05:29:41.217Z,12.60
2023-01-02T05:32:07.856Z,12.60
2023-01-02T05:34:41.760Z,12.70
2023-01-02T05:37:08.367Z,12.60
2023-01-02T05:39:35.081Z,12.60
2023-01-02T05:42:01.685Z,12.70
2023-01-02T05:44:28.928Z,12.70
2023-01-02T05:46:56.986Z,12.70
2023-01-02T05:49:23.640Z,12.60
2023-01-02T05:51:50.306Z,12.60
2023-01-02T05:54:16.895Z,12.60
2023-01-02T05:56:43.526Z,12.60
2023-01-02T05:59:10.097Z,12.80
2023-01-02T06:01:36.961Z,12.80
2023-01-02T06:04:03.734Z,12.90
2023-01-02T06:06:33.159Z,12.80
2023-01-02T06:09:00.548Z,12.80
2023-01-02T06:11:28.647Z,12.80
2023-01-02T06:13:55.841Z,12.70
2023-01-02T06:16:23.865Z,12.70
2023-01-02T06:18:51.343Z,12.60
2023-01-02T06:21:19.755Z,12.60
2023-01-02T06:23:47.219Z,12.60
2023-01-02T06:26:19.091Z,12.60
2023-01-02T06:28:48.570Z,12.70
2023-01-02T06:31:17.230Z,12.50
2023-01-02T06:33:44.375Z,12.50
2023-01-02T06:36:13.946Z,12.60
2023-01-02T06:38:40.873Z,12.60
2023-01-02T06:41:09.172Z,12.70
2023-01-02T06:43:40.893Z,12.60
2023-01-02T06:46:07.494Z,12.50
2023-01-02T06:48:34.897Z,12.50
2023-01-02T06:51:08.766Z,12.50
2023-01-02T06:53:37.125Z,12.50
2023-01-02T06:56:05.043Z,12.40
2023-01-02T06:58:39.850Z,12.20
2023-01-02T07:01:17.955Z,12.10
2023-01-02T07:03:44.879Z,12.10
2023-01-02T07:06:14.567Z,12.00
2023-01-02T07:08:42.797Z,11.90
2023-01-02T07:11:29.655Z,11.80
2023-01-02T07:13:56.285Z,11.80
2023-01-02T07:16:23.837Z,11.80
2023-01-02T07:18:53.113Z,11.80
2023-01-02T07:21:20.129Z,11.80
2023-01-02T07:24:02.105Z,11.80
2023-01-02T07:26:28.757Z,11.80
2023-01-02T07:28:55.324Z,11.80
2023-01-02T07:31:22.577Z,11.80
2023-01-02T07:33:49.515Z,11.90
2023-01-02T07:36:18.671Z,11.80
2023-01-02T07:38:49.862Z,11.90
2023-01-02T07:41:18.424Z,11.90
2023-01-02T07:43:45.929Z,11.90
2023-01-02T07:46:17.540Z,11.90
2023-01-02T07:48:45.025Z,12.10
2023-01-02T07:51:12.399Z,12.00
2023-01-02T07:53:41.373Z,12.00
2023-01-02T07:56:08.800Z,12.00
2023-01-02T07:58:35.645Z,12.00
2023-01-02T08:01:07.353Z,12.00
2023-01-02T08:03:35.018Z,12.10
2023-01-02T08:06:06.803Z,12.10
2023-01-02T08:08:33.931Z,12.10
2023-01-02T08:11:04.509Z,12.20
2023-01-02T08:13:31.105Z,12.10
2023-01-02T08:15:57.694Z,12.00
2023-01-02T08:18:24.271Z,12.10
2023-01-02T08:20:50.918Z,12.20
2023-01-02T08:23:17.499Z,12.20
2023-01-02T08:25:44.090Z,12.30
2023-01-02T08:28:10.706Z,12.40
2023-01-02T08:30:39.294Z,12.40
2023-01-02T08:33:05.993Z,12.40
2023-01-02T08:35:38.318Z,12.40
2023-01-02T08:38:05.659Z,12.40
2023-01-02T08:40:32.341Z,12.40
2023-01-02T08:42:58.949Z,12.40
2023-01-02T08:45:25.615Z,12.40
2023-01-02T08:47:52.256Z,12.50
2023-01-02T08:50:19.267Z,12.50
2023-01-02T08:52:45.856Z,12.60
2023-01-02T08:55:13.299Z,12.60
2023-01-02T08:57:40.070Z,12.60
2023-01-02T09:00:10.510Z,12.60
2023-01-02T09:02:37.380Z,12.70
2023-01-02T09:05:04.511Z,12.70
2023-01-02T09:07:32.573Z,12.80
2023-01-02T09:09:59.622Z,12.70
2023-01-02T09:12:26.260Z,12.70
2023-01-02T09:14:52.893Z,12.70
2023-01-02T09:17:19.497Z,12.70
2023-01-02T09:19:46.112Z,12.70
2023-01-02T09:22:12.748Z,12.70
2023-01-02T09:24:48.738Z,12.70
2023-01-02T09:27:15.574Z,12.80
2023-01-02T09:29:42.338Z,12.70
2023-01-02T09:32:08.916Z,12.60
2023-01-02T09:34:35.521Z,12.50
2023-01-02T09:37:02.254Z,12.50
2023-01-02T09:39:32.703Z,12.50
2023-01-02T09:42:04.429Z,12.40
2023-01-02T09:44:39.905Z,12.40
2023-01-02T09:47:08.117Z,12.40
2023-01-02T09:49:43.228Z,12.30
2023-01-02T09:52:17.457Z,12.30
2023-01-02T09:54:44.155Z,12.30
2023-01-02T09:57:29.173Z,12.20
2023-01-02T10:00:16.948Z,12.30
2023-01-02T10:03:08.277Z,12.30
2023-01-02T10:05:40.855Z,12.30
2023-01-02T10:08:27.807Z,12.30
2023-01-02T10:11:08.869Z,12.30
2023-01-02T10:14:17.214Z,12.30
2023-01-02T10:16:33.988Z,12.20
2023-01-02T10:19:05.453Z,12.20
2023-01-02T10:21:38.522Z,12.10
2023-01-02T10:24:23.484Z,12.10
2023-01-02T10:26:53.937Z,12.10
2023-01-02T10:29:50.152Z,12.00
2023-01-02T10:32:19.659Z,12.00
2023-01-02T10:35:07.575Z,12.00
2023-01-02T10:37:35.839Z,12.00
2023-01-02T10:40:02.965Z,12.00
2023-01-02T10:42:32.439Z,12.00
2023-01-02T10:44:59.294Z,12.00
2023-01-02T10:47:37.447Z,11.90
2023-01-02T10:50:14.580Z,12.00
2023-01-02T10:52:48.604Z,11.90
2023-01-02T10:55:30.888Z,11.90
2023-01-02T10:58:04.439Z,11.70
2023-01-02T11:00:34.434Z,11.50
2023-01-02T11:03:12.425Z,11.40
2023-01-02T11:05:49.273Z,11.30
2023-01-02T11:08:20.892Z,11.30
2023-01-02T11:10:48.276Z,11.20
2023-01-02T11:13:17.389Z,11.20
2023-01-02T11:16:04.745Z,11.20
2023-01-02T11:18:34.717Z,11.30
2023-01-02T11:21:04.428Z,11.30
2023-01-02T11:23:39.705Z,11.30
2023-01-02T11:26:20.099Z,11.30
2023-01-02T11:28:48.905Z,11.30
2023-01-02T11:31:17.023Z,11.40
2023-01-02T11:33:45.541Z,11.30
2023-01-02T11:36:12.147Z,11.40
2023-01-02T11:38:46.086Z,11.40
2023-01-02T11:41:48.113Z,11.30
2023-01-02T11:44:34.303Z,11.40
2023-01-02T11:47:02.902Z,11.40
2023-01-02T11:49:42.674Z,11.50
2023-01-02T11:52:14.157Z,11.40
2023-01-02T11:55:13.139Z,11.40
2023-01-02T11:58:11.728Z,11.30
2023-01-02T12:00:41.231Z,11.30
2023-01-02T12:03:19.385Z,11.30
2023-01-02T12:06:01.748Z,11.30
2023-01-02T12:08:51.537Z,11.30
2023-01-02T12:11:41.540Z,11.40
2023-01-02T12:14:22.065Z,11.30
2023-01-02T12:16:51.428Z,11.20
2023-01-02T12:19:42.689Z,11.20
2023-01-02T12:22:12.357Z,11.20
2023-01-02T12:24:49.185Z,11.20
2023-01-02T12:27:18.656Z,11.20
2023-01-02T12:29:56.915Z,11.10
2023-01-02T12:32:42.712Z,11.10
2023-01-02T12:35:47.481Z,11.10
2023-01-02T12:38:39.858Z,11.00
2023-01-02T12:41:17.652Z,11.00
2023-01-02T12:44:10.367Z,10.90
2023-01-02T12:46:51.951Z,10.90
2023-01-02T12:49:45.874Z,11.00
2023-01-02T12:52:47.780Z,11.00
2023-01-02T12:55:43.915Z,11.00
2023-01-02T12:58:42.047Z,11.00
2023-01-02T13:01:30.396Z,11.00
2023-01-02T13:04:03.025Z,10.90
2023-01-02T13:06:50.976Z,11.00
2023-01-02T13:09:34.919Z,10.90
2023-01-02T13:12:07.274Z,10.90
2023-01-02T13:15:12.655Z,10.90
2023-01-02T13:17:46.468Z,10.90
2023-01-02T13:20:41.422Z,10.90
2023-01-02T13:23:33.260Z,10.90
2023-01-02T13:26:10.894Z,10.90
2023-01-02T13:28:53.493Z,10.90
2023-01-02T13:31:46.030Z,11.00
2023-01-02T13:34:16.312Z,11.00
2023-01-02T13:36:49.666Z,10.90
2023-01-02T13:39:25.792Z,10.90
2023-01-02T13:42:17.653Z,10.90
2023-01-02T13:44:48.740Z,10.90
2023-01-02T13:47:27.256Z,10.90
2023-01-02T13:50:23.184Z,10.80
2023-01-02T13:53:02.661Z,10.90
2023-01-02T13:55:53.867Z,10.90
2023-01-02T13:58:25.741Z,10.80
2023-01-02T14:00:56.837Z,10.70
2023-01-02T14:03:23.779Z,10.70
2023-01-02T14:05:56.856Z,10.70
2023-01-02T14:08:32.408Z,10.70
2023-01-02T14:11:30.339Z,10.70
2023-01-02T14:14:41.505Z,10.60
2023-01-02T14:17:26.308Z,10.60
2023-01-02T14:20:20.441Z,10.60
2023-01-02T14:22:58.345Z,10.60
2023-01-02T14:25:26.005Z,10.50
2023-01-02T14:27:59.048Z,10.50
2023-01-02T14:30:31.070Z,10.50
2023-01-02T14:33:00.480Z,10.40
2023-01-02T14:35:37.572Z,10.40
2023-01-02T14:38:09.289Z,10.40
2023-01-02T14:40:39.493Z,10.40
2023-01-02T14:43:30.941Z,10.40
2023-01-02T14:46:19.209Z,10.30
2023-01-02T14:49:01.937Z,10.30
2023-01-02T14:51:59.076Z,10.30
2023-01-02T14:54:40.730Z,10.20
2023-01-02T14:57:32.750Z,10.20
2023-01-02T15:00:04.218Z,10.20
2023-01-02T15:02:38.227Z,10.20
2023-01-02T15:05:11.583Z,10.20
2023-01-02T15:07:43.782Z,10.10
2023-01-02T15:10:18.736Z,10.10
2023-01-02T15:13:04.931Z,10.00
2023-01-02T15:15:42.821Z,10.00
2023-01-02T15:18:18.893Z,10.00
2023-01-02T15:20:50.701Z,10.00
2023-01-02T15:23:21.190Z,10.00
2023-01-02T15:25:48.167Z,9.90
2023-01-02T15:28:29.876Z,9.90
2023-01-02T15:31:04.565Z,9.90
2023-01-02T15:33:33.122Z,9.80
2023-01-02T15:36:13.061Z,9.80
2023-01-02T15:38:40.455Z,9.80
2023-01-02T15:41:07.637Z,9.80
2023-01-02T15:43:53.783Z,9.70
2023-01-02T15:46:20.737Z,9.70
2023-01-02T15:48:49.056Z,9.70
2023-01-02T15:51:17.820Z,9.70
2023-01-02T15:53:45.777Z,9.70
2023-01-02T15:56:14.270Z,9.60
2023-01-02T15:58:49.650Z,9.60
2023-01-02T16:01:21.261Z,9.60
2023-01-02T16:04:01.251Z,9.60
2023-01-02T16:06:34.261Z,9.60
2023-01-02T16:09:03.932Z,9.60
2023-01-02T16:11:32.069Z,9.60
2023-01-02T16:14:19.029Z,9.50
2023-01-02T16:16:59.443Z,9.50
2023-01-02T16:19:36.009Z,9.50
2023-01-02T16:22:10.453Z,9.50
2023-01-02T16:24:43.738Z,9.40
2023-01-02T16:27:26.579Z,9.40
2023-01-02T16:29:54.423Z,9.40
2023-01-02T16:32:32.651Z,9.30
2023-01-02T16:35:26.530Z,9.40
2023-01-02T16:38:17.356Z,9.30
2023-01-02T16:41:01.693Z,9.30
2023-01-02T16:43:30.692Z,9.30
2023-01-02T16:45:58.710Z,9.30
2023-01-02T16:48:28.412Z,9.20
2023-01-02T16:50:57.955Z,9.10
2023-01-02T16:53:30.314Z,9.00
2023-01-02T16:56:03.219Z,9.00
2023-01-02T16:58:30.081Z,8.90
2023-01-02T17:00:57.039Z,8.90
2023-01-02T17:03:25.937Z,8.90
2023-01-02T17:06:01.500Z,9.00
2023-01-02T17:08:31.826Z,8.90
2023-01-02T17:10:59.293Z,8.90
2023-01-02T17:13:26.689Z,8.90
2023-01-02T17:16:02.660Z,8.90
2023-01-02T17:18:45.046Z,8.90
2023-01-02T17:21:12.064Z,8.90
2023-01-02T17:23:41.073Z,8.90
2023-01-02T17:26:08.008Z,8.80
2023-01-02T17:28:34.769Z,8.80
2023-01-02T17:31:01.366Z,8.80
2023-01-02T17:33:28.237Z,8.80
2023-01-02T17:35:55.095Z,8.70
2023-01-02T17:38:21.676Z,8.80
2023-01-02T17:40:48.609Z,8.80
2023-01-02T17:43:16.332Z,8.80
2023-01-02T17:45:43.100Z,8.80
2023-01-02T17:48:12.706Z,8.80
2023-01-02T17:50:40.633Z,8.80
2023-01-02T17:53:10.612Z,8.70
2023-01-02T17:55:37.356Z,8.80
2023-01-02T17:58:07.297Z,8.80
2023-01-02T18:00:38.253Z,8.80
2023-01-02T18:03:05.138Z,8.80
2023-01-02T18:05:32.775Z,8.80
2023-01-02T18:07:59.742Z,8.80
2023-01-02T18:10:32.604Z,8.80
2023-01-02T18:12:59.635Z,8.80
2023-01-02T18:15:26.539Z,8.70
2023-01-02T18:17:55.157Z,8.70
2023-01-02T18:20:23.148Z,8.60
2023-01-02T18:22:50.957Z,8.70
2023-01-02T18:25:33.035Z,8.70
2023-01-02T18:28:05.081Z,8.70
2023-01-02T18:30:31.704Z,8.60
2023-01-02T18:33:07.047Z,8.60
2023-01-02T18:38:30.867Z,8.60
2023-01-02T18:40:57.522Z,8.50
2023-01-02T18:43:37.907Z,8.60
2023-01-02T18:46:19.030Z,8.60
2023-01-02T18:48:46.594Z,8.40
2023-01-02T18:51:21.098Z,8.40
2023-01-02T18:53:50.640Z,8.30
2023-01-02T18:56:22.589Z,8.30
2023-01-02T18:59:04.192Z,8.30
2023-01-02T19:01:34.842Z,8.30
2023-01-02T19:04:27.302Z,8.30
2023-01-02T19:06:57.572Z,8.30
2023-01-02T19:09:32.029Z,8.30
2023-01-02T19:12:32.460Z,8.30
2023-01-02T19:15:22.348Z,8.40
2023-01-02T19:17:49.159Z,8.30
2023-01-02T19:20:16.355Z,8.30
2023-01-02T19:22:44.134Z,8.40
2023-01-02T19:25:20.692Z,8.40
2023-01-02T19:27:47.483Z,8.40
2023-01-02T19:30:30.847Z,8.40
2023-01-02T19:33:38.332Z,8.40
2023-01-02T19:36:11.354Z,8.30
2023-01-02T19:38:38.186Z,8.30
2023-01-02T19:41:04.888Z,8.30
2023-01-02T19:43:31.600Z,8.20
2023-01-02T19:45:58.222Z,8.20
2023-01-02T19:48:41.393Z,8.20
2023-01-02T19:51:08.022Z,8.20
2023-01-02T19:53:34.701Z,8.20
2023-01-02T19:56:01.333Z,8.10
2023-01-02T19:58:27.923Z,8.20
2023-01-02T20:00:55.575Z,8.20
2023-01-02T20:03:31.345Z,8.10
2023-01-02T20:05:57.967Z,8.10
2023-01-02T20:08:24.553Z,8.20
2023-01-02T20:10:51.149Z,8.20
2023-01-02T20:13:17.733Z,8.20
2023-01-02T20:15:44.345Z,8.20
2023-01-02T20:18:12.083Z,8.10
2023-01-02T20:20:38.815Z,8.10
2023-01-02T20:23:05.558Z,8.10
2023-01-02T20:25:32.455Z,8.10
2023-01-02T20:28:00.159Z,8.00
2023-01-02T20:30:26.890Z,8.00
2023-01-02T20:32:55.306Z,8.00
2023-01-02T20:35:22.275Z,8.00
2023-01-02T20:37:48.899Z,7.90
2023-01-02T20:40:15.560Z,7.90
2023-01-02T20:42:43.690Z,7.80
2023-01-02T20:45:11.042Z,7.80
2023-01-02T20:47:38.038Z,7.70
2023-01-02T20:50:05.021Z,7.70
2023-01-02T20:52:31.690Z,7.80
2023-01-02T20:54:58.645Z,7.90
2023-01-02T20:57:25.313Z,8.10
2023-01-02T20:59:51.994Z,8.10
2023-01-02T21:02:18.863Z,8.20
2023-01-02T21:04:45.638Z,8.20
2023-01-02T21:07:12.393Z,8.30
2023-01-02T21:09:39.147Z,8.40
2023-01-02T21:12:25.801Z,8.50
2023-01-02T21:14:52.655Z,8.50
2023-01-02T21:17:19.263Z,8.50
2023-01-02T21:19:45.938Z,8.40
2023-01-02T21:22:12.575Z,8.30
2023-01-02T21:24:41.273Z,8.30
2023-01-02T21:27:12.812Z,8.20
2023-01-02T21:29:40.578Z,8.20
2023-01-02T21:32:07.474Z,8.20
2023-01-02T21:34:34.140Z,8.10
2023-01-02T21:37:00.742Z,8.10
2023-01-02T21:39:27.348Z,8.10
2023-01-02T21:42:12.492Z,8.20
2023-01-02T21:44:39.215Z,8.10
2023-01-02T21:47:05.882Z,8.20
2023-01-02T21:49:32.664Z,8.20
2023-01-02T21:52:00.167Z,8.20
2023-01-02T21:54:27.383Z,8.10
2023-01-02T21:56:54.268Z,8.20
2023-01-02T21:59:25.130Z,8.20
2023-01-02T22:01:52.936Z,8.20
2023-01-02T22:04:20.144Z,8.20
2023-01-02T22:07:29.550Z,8.20
2023-01-02T22:09:33.751Z,8.20
2023-01-02T22:12:00.530Z,8.20
2023-01-02T22:14:31.118Z,8.20
2023-01-02T22:17:00.260Z,8.10
2023-01-02T22:19:27.703Z,8.00
2023-01-02T22:21:55.400Z,7.90
2023-01-02T22:24:23.879Z,7.80
2023-01-02T22:26:53.722Z,7.70
2023-01-02T22:29:21.800Z,7.60
2023-01-02T22:31:49.222Z,7.60
2023-01-02T22:34:21.522Z,7.60
2023-01-02T22:36:48.190Z,7.50
2023-01-02T22:39:27.987Z,7.50
2023-01-02T22:42:57.595Z,7.50
2023-01-02T22:45:06.213Z,7.50
2023-01-02T22:47:36.795Z,7.60
2023-01-02T22:50:11.776Z,7.60
2023-01-02T22:52:39.230Z,7.60
2023-01-02T22:55:18.230Z,7.50
2023-01-02T22:57:51.066Z,7.30
2023-01-02T23:00:22.410Z,7.20
2023-01-02T23:02:49.973Z,7.00
2023-01-02T23:05:20.620Z,6.90
2023-01-02T23:07:49.584Z,6.90
2023-01-02T23:10:16.416Z,6.90
2023-01-02T23:12:43.147Z,6.80
2023-01-02T23:15:13.010Z,6.80
2023-01-02T23:17:58.312Z,6.70
2023-01-02T23:20:26.195Z,6.70
2023-01-02T23:22:52.820Z,6.80
2023-01-02T23:25:19.550Z,6.80
2023-01-02T23:27:46.331Z,6.90
2023-01-02T23:30:13.297Z,6.90
2023-01-02T23:32:40.091Z,6.90
2023-01-02T23:35:07.320Z,7.00
2023-01-02T23:37:34.005Z,7.00
2023-01-02T23:40:00.645Z,7.00
2023-01-02T23:42:27.311Z,7.10
2023-01-02T23:44:53.929Z,7.00
2023-01-02T23:47:20.647Z,7.10
2023-01-02T23:49:47.220Z,7.10
2023-01-02T23:52:13.947Z,7.10
2023-01-02T23:54:40.523Z,7.10
2023-01-02T23:57:07.115Z,7.10
2023-01-02T23:59:33.997Z,7.10
